sensor_id;sensor_type;location;lat;lon;timestamp;P1;durP1;ratioP1;P2;durP2;ratioP2
14015;SDS011;7083;48.854;9.158;2023-04-25T00:01:14;1391.27;;;722.13;;
14015;SDS011;7083;48.854;9.158;2023-04-25T00:03:41;1999.90;;;999.90;;
14015;SDS011;7083;48.854;9.158;2023-04-25T00:06:08;1999.90;;;999.90;;
14015;SDS011;7083;48.854;9.158;2023-04-25T00:08:35;1999.90;;;999.90;;
14015;SDS011;7083;48.854;9.158;2023-04-25T00:11:03;1999.90;;;999.90;;
14015;SDS011;7083;48.854;9.158;2023-04-25T00:13:30;1999.90;;;999.90;;
14015;SDS011;7083;48.854;9.158;2023-04-25T00:15:57;1999.90;;;999.90;;
14015;SDS011;7083;48.854;9.158;2023-04-25T00:18:25;1999.90;;;999.90;;
14015;SDS011;7083;48.854;9.158;2023-04-25T00:20:53;1999.90;;;999.90;;
14015;SDS011;7083;48.854;9.158;2023-04-25T00:23:20;1999.90;;;999.90;;
14015;SDS011;7083;48.854;9.158;2023-04-25T00:25:49;1999.90;;;999.90;;
14015;SDS011;7083;48.854;9.158;2023-04-25T00:28:17;1999.90;;;999.90;;
14015;SDS011;7083;48.854;9.158;2023-04-25T00:30:44;1999.90;;;999.90;;
14015;SDS011;7083;48.854;9.158;2023-04-25T00:33:11;1999.90;;;999.90;;
14015;SDS011;7083;48.854;9.158;2023-04-25T00:35:37;1999.90;;;999.90;;
14015;SDS011;7083;48.854;9.158;2023-04-25T00:38:04;1999.90;;;999.90;;
14015;SDS011;7083;48.854;9.158;2023-04-25T00:40:31;1999.90;;;999.90;;
14015;SDS011;7083;48.854;9.158;2023-04-25T00:42:58;1999.90;;;999.90;;
14015;SDS011;7083;48.854;9.158;2023-04-25T00:45:28;1999.90;;;999.90;;
14015;SDS011;7083;48.854;9.158;2023-04-25T00:47:55;1999.90;;;999.90;;
14015;SDS011;7083;48.854;9.158;2023-04-25T00:50:22;1999.90;;;999.90;;
14015;SDS011;7083;48.854;9.158;2023-04-25T00:52:49;1999.90;;;999.90;;
14015;SDS011;7083;48.854;9.158;2023-04-25T00:55:17;1999.90;;;999.90;;
14015;SDS011;7083;48.854;9.158;2023-04-25T00:57:43;1999.90;;;999.90;;
14015;SDS011;7083;48.854;9.158;2023-04-25T01:00:10;1999.90;;;999.90;;
14015;SDS011;7083;48.854;9.158;2023-04-25T01:02:39;1999.90;;;999.90;;
14015;SDS011;7083;48.854;9.158;2023-04-25T01:05:07;1999.90;;;999.90;;
14015;SDS011;7083;48.854;9.158;2023-04-25T01:07:34;1999.90;;;999.90;;
14015;SDS011;7083;48.854;9.158;2023-04-25T01:10:01;1999.90;;;999.90;;
14015;SDS011;7083;48.854;9.158;2023-04-25T01:12:28;1999.90;;;999.90;;
14015;SDS011;7083;48.854;9.158;2023-04-25T01:14:55;1999.90;;;999.90;;
14015;SDS011;7083;48.854;9.158;2023-04-25T01:17:22;1999.90;;;999.90;;
14015;SDS011;7083;48.854;9.158;2023-04-25T01:19:50;1999.90;;;999.90;;
14015;SDS011;7083;48.854;9.158;2023-04-25T01:22:18;1999.90;;;999.90;;
14015;SDS011;7083;48.854;9.158;2023-04-25T01:24:45;1999.90;;;999.90;;
14015;SDS011;7083;48.854;9.158;2023-04-25T01:27:12;1999.90;;;999.90;;
14015;SDS011;7083;48.854;9.158;2023-04-25T01:29:40;1999.90;;;999.90;;
14015;SDS011;7083;48.854;9.158;2023-04-25T01:32:07;1999.90;;;999.90;;
14015;SDS011;7083;48.854;9.158;2023-04-25T01:34:34;1999.90;;;999.90;;
14015;SDS011;7083;48.854;9.158;2023-04-25T01:37:01;1999.90;;;999.90;;
14015;SDS011;7083;48.854;9.158;2023-04-25T01:39:29;1999.90;;;999.90;;
14015;SDS011;7083;48.854;9.158;2023-04-25T01:41:56;1999.90;;;999.90;;
14015;SDS011;7083;48.854;9.158;2023-04-25T01:44:23;1999.90;;;999.90;;
14015;SDS011;7083;48.854;9.158;2023-04-25T01:46:50;1999.90;;;999.90;;
14015;SDS011;7083;48.854;9.158;2023-04-25T01:49:17;1999.90;;;999.90;;
14015;SDS011;7083;48.854;9.158;2023-04-25T01:51:43;1999.90;;;999.90;;
14015;SDS011;7083;48.854;9.158;2023-04-25T01:54:10;1999.90;;;999.90;;
14015;SDS011;7083;48.854;9.158;2023-04-25T01:56:39;1999.90;;;999.90;;
14015;SDS011;7083;48.854;9.158;2023-04-25T01:59:05;1999.90;;;999.90;;
14015;SDS011;7083;48.854;9.158;2023-04-25T02:01:32;1999.90;;;999.90;;
14015;SDS011;7083;48.854;9.158;2023-04-25T02:03:59;1999.90;;;999.90;;
14015;SDS011;7083;48.854;9.158;2023-04-25T02:06:25;1999.90;;;999.90;;
14015;SDS011;7083;48.854;9.158;2023-04-25T02:08:52;1999.90;;;999.90;;
14015;SDS011;7083;48.854;9.158;2023-04-25T02:11:19;1999.90;;;999.90;;
14015;SDS011;7083;48.854;9.158;2023-04-25T02:13:47;1999.90;;;999.90;;
14015;SDS011;7083;48.854;9.158;2023-04-25T02:16:14;1999.90;;;999.90;;
14015;SDS011;7083;48.854;9.158;2023-04-25T02:18:40;1999.90;;;999.90;;
14015;SDS011;7083;48.854;9.158;2023-04-25T02:21:07;1999.90;;;999.90;;
14015;SDS011;7083;48.854;9.158;2023-04-25T02:23:34;1999.90;;;999.90;;
14015;SDS011;7083;48.854;9.158;2023-04-25T02:26:00;1999.90;;;999.90;;
14015;SDS011;7083;48.854;9.158;2023-04-25T02:28:27;1999.90;;;999.90;;
14015;SDS011;7083;48.854;9.158;2023-04-25T02:30:55;399.00;;;382.20;;
14015;SDS011;7083;48.854;9.158;2023-04-25T02:33:22;1999.90;;;999.90;;
14015;SDS011;7083;48.854;9.158;2023-04-25T02:35:48;1999.90;;;999.90;;
14015;SDS011;7083;48.854;9.158;2023-04-25T02:38:15;1999.90;;;999.90;;
14015;SDS011;7083;48.854;9.158;2023-04-25T02:40:42;1999.90;;;999.90;;
14015;SDS011;7083;48.854;9.158;2023-04-25T02:43:09;1999.90;;;999.90;;
14015;SDS011;7083;48.854;9.158;2023-04-25T02:45:35;1999.90;;;999.90;;
14015;SDS011;7083;48.854;9.158;2023-04-25T02:48:04;1999.90;;;999.90;;
14015;SDS011;7083;48.854;9.158;2023-04-25T02:50:31;1999.90;;;999.90;;
14015;SDS011;7083;48.854;9.158;2023-04-25T02:52:57;1999.90;;;999.90;;
14015;SDS011;7083;48.854;9.158;2023-04-25T02:55:24;1999.90;;;999.90;;
14015;SDS011;7083;48.854;9.158;2023-04-25T02:57:51;1999.90;;;999.90;;
14015;SDS011;7083;48.854;9.158;2023-04-25T03:00:20;1999.90;;;999.90;;
14015;SDS011;7083;48.854;9.158;2023-04-25T03:02:47;1999.90;;;999.90;;
14015;SDS011;7083;48.854;9.158;2023-04-25T03:05:14;1999.90;;;999.90;;
14015;SDS011;7083;48.854;9.158;2023-04-25T03:07:41;1999.90;;;999.90;;
14015;SDS011;7083;48.854;9.158;2023-04-25T03:10:11;1999.90;;;999.90;;
14015;SDS011;7083;48.854;9.158;2023-04-25T03:12:38;1999.90;;;999.90;;
14015;SDS011;7083;48.854;9.158;2023-04-25T03:15:05;1999.90;;;999.90;;
14015;SDS011;7083;48.854;9.158;2023-04-25T03:17:35;1999.90;;;999.90;;
14015;SDS011;7083;48.854;9.158;2023-04-25T03:20:01;1999.90;;;999.90;;
14015;SDS011;7083;48.854;9.158;2023-04-25T03:22:31;1999.90;;;999.90;;
14015;SDS011;7083;48.854;9.158;2023-04-25T03:24:58;1999.90;;;999.90;;
14015;SDS011;7083;48.854;9.158;2023-04-25T03:27:25;1999.90;;;999.90;;
14015;SDS011;7083;48.854;9.158;2023-04-25T03:29:51;1999.90;;;999.90;;
14015;SDS011;7083;48.854;9.158;2023-04-25T03:32:18;1999.90;;;999.90;;
14015;SDS011;7083;48.854;9.158;2023-04-25T03:34:45;1999.90;;;999.90;;
14015;SDS011;7083;48.854;9.158;2023-04-25T03:37:14;1999.90;;;999.90;;
14015;SDS011;7083;48.854;9.158;2023-04-25T03:39:42;1999.90;;;999.90;;
14015;SDS011;7083;48.854;9.158;2023-04-25T03:42:08;1999.90;;;999.90;;
14015;SDS011;7083;48.854;9.158;2023-04-25T03:44:35;1999.90;;;999.90;;
14015;SDS011;7083;48.854;9.158;2023-04-25T03:47:02;1999.90;;;999.90;;
14015;SDS011;7083;48.854;9.158;2023-04-25T03:49:32;1999.90;;;999.90;;
14015;SDS011;7083;48.854;9.158;2023-04-25T03:52:00;1999.90;;;999.90;;
14015;SDS011;7083;48.854;9.158;2023-04-25T03:54:27;1999.90;;;999.90;;
14015;SDS011;7083;48.854;9.158;2023-04-25T03:56:56;1999.90;;;999.90;;
14015;SDS011;7083;48.854;9.158;2023-04-25T03:59:22;1999.90;;;999.90;;
14015;SDS011;7083;48.854;9.158;2023-04-25T04:01:49;1999.90;;;999.90;;
14015;SDS011;7083;48.854;9.158;2023-04-25T04:04:16;1999.90;;;999.90;;
14015;SDS011;7083;48.854;9.158;2023-04-25T04:06:43;1999.90;;;999.90;;
14015;SDS011;7083;48.854;9.158;2023-04-25T04:09:10;1999.90;;;999.90;;
14015;SDS011;7083;48.854;9.158;2023-04-25T04:11:37;1999.90;;;999.90;;
14015;SDS011;7083;48.854;9.158;2023-04-25T04:14:08;1999.90;;;999.90;;
14015;SDS011;7083;48.854;9.158;2023-04-25T04:16:35;1999.90;;;999.90;;
14015;SDS011;7083;48.854;9.158;2023-04-25T04:19:02;1999.90;;;999.90;;
14015;SDS011;7083;48.854;9.158;2023-04-25T04:21:29;1999.90;;;999.90;;
14015;SDS011;7083;48.854;9.158;2023-04-25T04:23:56;1999.90;;;999.90;;
14015;SDS011;7083;48.854;9.158;2023-04-25T04:26:24;1999.90;;;999.90;;
14015;SDS011;7083;48.854;9.158;2023-04-25T04:28:52;1999.90;;;999.90;;
14015;SDS011;7083;48.854;9.158;2023-04-25T04:31:20;1999.90;;;999.90;;
14015;SDS011;7083;48.854;9.158;2023-04-25T04:33:48;1999.90;;;999.90;;
14015;SDS011;7083;48.854;9.158;2023-04-25T04:36:15;1999.90;;;999.90;;
14015;SDS011;7083;48.854;9.158;2023-04-25T04:38:44;1999.90;;;999.90;;
14015;SDS011;7083;48.854;9.158;2023-04-25T04:41:11;1999.90;;;999.90;;
14015;SDS011;7083;48.854;9.158;2023-04-25T04:43:38;1999.90;;;999.90;;
14015;SDS011;7083;48.854;9.158;2023-04-25T04:46:05;1999.90;;;999.90;;
14015;SDS011;7083;48.854;9.158;2023-04-25T04:48:33;1999.90;;;999.90;;
14015;SDS011;7083;48.854;9.158;2023-04-25T04:51:00;1999.90;;;999.90;;
14015;SDS011;7083;48.854;9.158;2023-04-25T04:53:27;1999.90;;;999.90;;
14015;SDS011;7083;48.854;9.158;2023-04-25T04:55:53;1999.90;;;999.90;;
14015;SDS011;7083;48.854;9.158;2023-04-25T04:58:21;1999.90;;;999.90;;
14015;SDS011;7083;48.854;9.158;2023-04-25T05:00:57;1999.90;;;999.90;;
14015;SDS011;7083;48.854;9.158;2023-04-25T05:03:27;1999.90;;;999.90;;
14015;SDS011;7083;48.854;9.158;2023-04-25T05:05:55;1999.90;;;999.90;;
14015;SDS011;7083;48.854;9.158;2023-04-25T05:08:22;1999.90;;;999.90;;
14015;SDS011;7083;48.854;9.158;2023-04-25T05:10:49;1999.90;;;999.90;;
14015;SDS011;7083;48.854;9.158;2023-04-25T05:13:16;180.07;;;172.73;;
14015;SDS011;7083;48.854;9.158;2023-04-25T05:15:42;1999.90;;;999.90;;
14015;SDS011;7083;48.854;9.158;2023-04-25T05:18:09;1999.90;;;999.90;;
14015;SDS011;7083;48.854;9.158;2023-04-25T05:20:36;1999.90;;;999.90;;
14015;SDS011;7083;48.854;9.158;2023-04-25T05:23:04;1999.90;;;999.90;;
14015;SDS011;7083;48.854;9.158;2023-04-25T05:25:31;1999.90;;;999.90;;
14015;SDS011;7083;48.854;9.158;2023-04-25T05:27:57;1999.90;;;999.90;;
14015;SDS011;7083;48.854;9.158;2023-04-25T05:30:25;1999.90;;;999.90;;
14015;SDS011;7083;48.854;9.158;2023-04-25T05:32:51;1999.90;;;999.90;;
14015;SDS011;7083;48.854;9.158;2023-04-25T05:35:18;1999.90;;;999.90;;
14015;SDS011;7083;48.854;9.158;2023-04-25T05:37:45;1999.90;;;999.90;;
14015;SDS011;7083;48.854;9.158;2023-04-25T05:40:13;1999.90;;;999.90;;
14015;SDS011;7083;48.854;9.158;2023-04-25T05:42:39;1999.90;;;999.90;;
14015;SDS011;7083;48.854;9.158;2023-04-25T05:45:06;1999.90;;;999.90;;
14015;SDS011;7083;48.854;9.158;2023-04-25T05:47:36;1999.90;;;999.90;;
14015;SDS011;7083;48.854;9.158;2023-04-25T05:50:19;1999.90;;;999.90;;
14015;SDS011;7083;48.854;9.158;2023-04-25T05:52:46;1999.90;;;999.90;;
14015;SDS011;7083;48.854;9.158;2023-04-25T05:55:14;1999.90;;;999.90;;
14015;SDS011;7083;48.854;9.158;2023-04-25T05:57:41;1999.90;;;999.90;;
14015;SDS011;7083;48.854;9.158;2023-04-25T06:00:11;1999.90;;;999.90;;
14015;SDS011;7083;48.854;9.158;2023-04-25T06:02:40;1999.90;;;999.90;;
14015;SDS011;7083;48.854;9.158;2023-04-25T06:05:07;1999.90;;;999.90;;
14015;SDS011;7083;48.854;9.158;2023-04-25T06:07:34;1999.90;;;999.90;;
14015;SDS011;7083;48.854;9.158;2023-04-25T06:10:01;223.73;;;214.53;;
14015;SDS011;7083;48.854;9.158;2023-04-25T06:12:30;1427.70;;;757.10;;
14015;SDS011;7083;48.854;9.158;2023-04-25T06:14:56;1999.90;;;999.90;;
14015;SDS011;7083;48.854;9.158;2023-04-25T06:17:23;1999.90;;;999.90;;
14015;SDS011;7083;48.854;9.158;2023-04-25T06:19:50;1999.90;;;999.90;;
14015;SDS011;7083;48.854;9.158;2023-04-25T06:22:16;1999.90;;;999.90;;
14015;SDS011;7083;48.854;9.158;2023-04-25T06:24:43;1999.90;;;999.90;;
14015;SDS011;7083;48.854;9.158;2023-04-25T06:27:10;1999.90;;;999.90;;
14015;SDS011;7083;48.854;9.158;2023-04-25T06:29:38;1999.90;;;999.90;;
14015;SDS011;7083;48.854;9.158;2023-04-25T06:32:05;1999.90;;;999.90;;
14015;SDS011;7083;48.854;9.158;2023-04-25T06:34:32;1999.90;;;999.90;;
14015;SDS011;7083;48.854;9.158;2023-04-25T06:36:58;1999.90;;;999.90;;
14015;SDS011;7083;48.854;9.158;2023-04-25T06:39:25;1380.30;;;711.77;;
14015;SDS011;7083;48.854;9.158;2023-04-25T06:41:52;1999.90;;;999.90;;
14015;SDS011;7083;48.854;9.158;2023-04-25T06:44:19;1999.90;;;999.90;;
14015;SDS011;7083;48.854;9.158;2023-04-25T06:46:47;177.37;;;170.27;;
14015;SDS011;7083;48.854;9.158;2023-04-25T06:49:14;204.13;;;195.77;;
14015;SDS011;7083;48.854;9.158;2023-04-25T06:51:42;240.50;;;230.73;;
14015;SDS011;7083;48.854;9.158;2023-04-25T06:54:08;162.23;;;155.77;;
14015;SDS011;7083;48.854;9.158;2023-04-25T06:56:35;174.77;;;167.67;;
14015;SDS011;7083;48.854;9.158;2023-04-25T06:59:02;373.97;;;357.87;;
14015;SDS011;7083;48.854;9.158;2023-04-25T07:01:28;365.60;;;350.13;;
14015;SDS011;7083;48.854;9.158;2023-04-25T07:03:56;187.87;;;180.57;;
14015;SDS011;7083;48.854;9.158;2023-04-25T07:06:23;189.77;;;182.37;;
14015;SDS011;7083;48.854;9.158;2023-04-25T07:08:50;185.30;;;177.80;;
14015;SDS011;7083;48.854;9.158;2023-04-25T07:11:17;173.27;;;166.43;;
14015;SDS011;7083;48.854;9.158;2023-04-25T07:13:44;212.03;;;203.63;;
14015;SDS011;7083;48.854;9.158;2023-04-25T07:16:10;1355.13;;;687.60;;
14015;SDS011;7083;48.854;9.158;2023-04-25T07:18:37;1376.67;;;708.30;;
14015;SDS011;7083;48.854;9.158;2023-04-25T07:21:05;159.30;;;153.00;;
14015;SDS011;7083;48.854;9.158;2023-04-25T07:23:32;182.67;;;175.37;;
14015;SDS011;7083;48.854;9.158;2023-04-25T07:25:58;181.30;;;174.20;;
14015;SDS011;7083;48.854;9.158;2023-04-25T07:28:25;227.63;;;218.60;;
14015;SDS011;7083;48.854;9.158;2023-04-25T07:30:52;221.27;;;212.63;;
14015;SDS011;7083;48.854;9.158;2023-04-25T07:33:18;352.37;;;337.57;;
14015;SDS011;7083;48.854;9.158;2023-04-25T07:35:46;195.80;;;188.17;;
14015;SDS011;7083;48.854;9.158;2023-04-25T07:38:14;169.03;;;162.30;;
14015;SDS011;7083;48.854;9.158;2023-04-25T07:40:41;265.10;;;254.10;;
14015;SDS011;7083;48.854;9.158;2023-04-25T07:43:07;159.87;;;153.60;;
14015;SDS011;7083;48.854;9.158;2023-04-25T07:45:37;1999.90;;;999.90;;
14015;SDS011;7083;48.854;9.158;2023-04-25T07:48:03;121.67;;;116.83;;
14015;SDS011;7083;48.854;9.158;2023-04-25T07:50:30;1999.90;;;999.90;;
14015;SDS011;7083;48.854;9.158;2023-04-25T07:52:57;1999.90;;;999.90;;
14015;SDS011;7083;48.854;9.158;2023-04-25T07:55:25;257.63;;;247.13;;
14015;SDS011;7083;48.854;9.158;2023-04-25T07:57:52;128.80;;;123.67;;
14015;SDS011;7083;48.854;9.158;2023-04-25T08:00:19;196.43;;;188.53;;
14015;SDS011;7083;48.854;9.158;2023-04-25T08:02:46;183.10;;;175.87;;
14015;SDS011;7083;48.854;9.158;2023-04-25T08:05:13;190.07;;;182.47;;
14015;SDS011;7083;48.854;9.158;2023-04-25T08:07:40;1999.90;;;999.90;;
14015;SDS011;7083;48.854;9.158;2023-04-25T08:10:08;280.83;;;269.33;;
14015;SDS011;7083;48.854;9.158;2023-04-25T08:12:37;129.93;;;124.80;;
14015;SDS011;7083;48.854;9.158;2023-04-25T08:15:04;250.97;;;240.93;;
14015;SDS011;7083;48.854;9.158;2023-04-25T08:17:32;1999.90;;;999.90;;
14015;SDS011;7083;48.854;9.158;2023-04-25T08:19:58;1999.90;;;999.90;;
14015;SDS011;7083;48.854;9.158;2023-04-25T08:22:25;1999.90;;;999.90;;
14015;SDS011;7083;48.854;9.158;2023-04-25T08:24:52;1999.90;;;999.90;;
14015;SDS011;7083;48.854;9.158;2023-04-25T08:27:18;1999.90;;;999.90;;
14015;SDS011;7083;48.854;9.158;2023-04-25T08:29:47;1999.90;;;999.90;;
14015;SDS011;7083;48.854;9.158;2023-04-25T08:32:15;1999.90;;;999.90;;
14015;SDS011;7083;48.854;9.158;2023-04-25T08:34:41;1999.90;;;999.90;;
14015;SDS011;7083;48.854;9.158;2023-04-25T08:37:09;1999.90;;;999.90;;
14015;SDS011;7083;48.854;9.158;2023-04-25T08:39:36;1999.90;;;999.90;;
14015;SDS011;7083;48.854;9.158;2023-04-25T08:42:04;1999.90;;;999.90;;
14015;SDS011;7083;48.854;9.158;2023-04-25T08:44:32;1999.90;;;999.90;;
14015;SDS011;7083;48.854;9.158;2023-04-25T08:47:01;1999.90;;;999.90;;
14015;SDS011;7083;48.854;9.158;2023-04-25T08:49:29;1999.90;;;999.90;;
14015;SDS011;7083;48.854;9.158;2023-04-25T08:51:56;1999.90;;;999.90;;
14015;SDS011;7083;48.854;9.158;2023-04-25T08:54:27;1999.90;;;999.90;;
14015;SDS011;7083;48.854;9.158;2023-04-25T08:56:55;1999.90;;;999.90;;
14015;SDS011;7083;48.854;9.158;2023-04-25T08:59:23;1999.90;;;999.90;;
14015;SDS011;7083;48.854;9.158;2023-04-25T09:01:50;203.90;;;195.80;;
14015;SDS011;7083;48.854;9.158;2023-04-25T09:04:18;1408.00;;;738.40;;
14015;SDS011;7083;48.854;9.158;2023-04-25T09:06:45;162.17;;;155.87;;
14015;SDS011;7083;48.854;9.158;2023-04-25T09:09:11;1372.90;;;704.67;;
14015;SDS011;7083;48.854;9.158;2023-04-25T09:11:38;137.40;;;132.00;;
14015;SDS011;7083;48.854;9.158;2023-04-25T09:14:12;271.70;;;260.70;;
14015;SDS011;7083;48.854;9.158;2023-04-25T09:16:56;230.17;;;221.10;;
14015;SDS011;7083;48.854;9.158;2023-04-25T09:19:27;217.40;;;208.77;;
14015;SDS011;7083;48.854;9.158;2023-04-25T09:21:55;173.43;;;166.50;;
14015;SDS011;7083;48.854;9.158;2023-04-25T09:24:30;123.47;;;118.57;;
14015;SDS011;7083;48.854;9.158;2023-04-25T09:27:02;116.93;;;112.10;;
14015;SDS011;7083;48.854;9.158;2023-04-25T09:29:30;1999.90;;;999.90;;
14015;SDS011;7083;48.854;9.158;2023-04-25T09:34:47;162.80;;;156.43;;
14015;SDS011;7083;48.854;9.158;2023-04-25T09:37:19;195.83;;;187.93;;
14015;SDS011;7083;48.854;9.158;2023-04-25T09:39:47;202.00;;;194.03;;
14015;SDS011;7083;48.854;9.158;2023-04-25T09:42:15;209.70;;;201.20;;
14015;SDS011;7083;48.854;9.158;2023-04-25T09:44:43;256.00;;;245.90;;
14015;SDS011;7083;48.854;9.158;2023-04-25T09:47:11;250.97;;;241.00;;
14015;SDS011;7083;48.854;9.158;2023-04-25T09:49:39;273.23;;;262.37;;
14015;SDS011;7083;48.854;9.158;2023-04-25T09:52:13;272.60;;;261.53;;
14015;SDS011;7083;48.854;9.158;2023-04-25T09:54:40;263.43;;;252.83;;
14015;SDS011;7083;48.854;9.158;2023-04-25T09:57:09;277.33;;;266.27;;
14015;SDS011;7083;48.854;9.158;2023-04-25T09:59:38;211.53;;;203.10;;
14015;SDS011;7083;48.854;9.158;2023-04-25T10:02:08;158.90;;;152.30;;
14015;SDS011;7083;48.854;9.158;2023-04-25T10:04:36;148.07;;;142.17;;
14015;SDS011;7083;48.854;9.158;2023-04-25T10:07:05;148.73;;;142.70;;
14015;SDS011;7083;48.854;9.158;2023-04-25T10:09:35;140.37;;;134.67;;
14015;SDS011;7083;48.854;9.158;2023-04-25T10:12:04;141.40;;;135.63;;
14015;SDS011;7083;48.854;9.158;2023-04-25T10:14:32;158.37;;;152.10;;
14015;SDS011;7083;48.854;9.158;2023-04-25T10:16:59;166.60;;;160.07;;
14015;SDS011;7083;48.854;9.158;2023-04-25T10:19:27;189.80;;;182.23;;
14015;SDS011;7083;48.854;9.158;2023-04-25T10:21:55;1388.13;;;719.23;;
14015;SDS011;7083;48.854;9.158;2023-04-25T10:24:29;1392.03;;;723.03;;
14015;SDS011;7083;48.854;9.158;2023-04-25T10:26:57;168.00;;;161.03;;
14015;SDS011;7083;48.854;9.158;2023-04-25T10:29:25;237.57;;;228.13;;
14015;SDS011;7083;48.854;9.158;2023-04-25T10:31:52;240.07;;;230.67;;
14015;SDS011;7083;48.854;9.158;2023-04-25T10:34:19;221.23;;;212.47;;
14015;SDS011;7083;48.854;9.158;2023-04-25T10:36:50;191.87;;;184.33;;
14015;SDS011;7083;48.854;9.158;2023-04-25T10:39:21;178.73;;;171.53;;
14015;SDS011;7083;48.854;9.158;2023-04-25T10:41:53;149.40;;;143.47;;
14015;SDS011;7083;48.854;9.158;2023-04-25T10:44:23;154.03;;;147.83;;
14015;SDS011;7083;48.854;9.158;2023-04-25T10:46:54;135.00;;;129.53;;
14015;SDS011;7083;48.854;9.158;2023-04-25T10:49:28;1374.03;;;705.70;;
14015;SDS011;7083;48.854;9.158;2023-04-25T10:54:51;1999.90;;;999.90;;
14015;SDS011;7083;48.854;9.158;2023-04-25T10:57:31;1999.90;;;999.90;;
14015;SDS011;7083;48.854;9.158;2023-04-25T11:00:08;1372.23;;;703.97;;
14015;SDS011;7083;48.854;9.158;2023-04-25T11:02:37;139.33;;;133.60;;
14015;SDS011;7083;48.854;9.158;2023-04-25T11:05:06;174.10;;;166.90;;
14015;SDS011;7083;48.854;9.158;2023-04-25T11:07:37;124.77;;;119.77;;
14015;SDS011;7083;48.854;9.158;2023-04-25T11:10:06;110.37;;;105.97;;
14015;SDS011;7083;48.854;9.158;2023-04-25T11:12:33;87.80;;;84.30;;
14015;SDS011;7083;48.854;9.158;2023-04-25T11:15:01;96.13;;;92.27;;
14015;SDS011;7083;48.854;9.158;2023-04-25T11:17:30;134.97;;;129.53;;
14015;SDS011;7083;48.854;9.158;2023-04-25T11:19:57;182.17;;;174.97;;
14015;SDS011;7083;48.854;9.158;2023-04-25T11:22:23;175.53;;;168.57;;
14015;SDS011;7083;48.854;9.158;2023-04-25T11:24:50;153.53;;;147.43;;
14015;SDS011;7083;48.854;9.158;2023-04-25T11:27:17;132.53;;;127.30;;
14015;SDS011;7083;48.854;9.158;2023-04-25T11:29:44;96.17;;;92.40;;
14015;SDS011;7083;48.854;9.158;2023-04-25T11:32:12;90.17;;;86.67;;
14015;SDS011;7083;48.854;9.158;2023-04-25T11:34:42;90.23;;;86.67;;
14015;SDS011;7083;48.854;9.158;2023-04-25T11:37:10;105.27;;;100.97;;
14015;SDS011;7083;48.854;9.158;2023-04-25T11:39:38;125.33;;;120.30;;
14015;SDS011;7083;48.854;9.158;2023-04-25T11:42:09;127.50;;;122.37;;
14015;SDS011;7083;48.854;9.158;2023-04-25T11:44:35;126.40;;;121.37;;
14015;SDS011;7083;48.854;9.158;2023-04-25T11:47:04;105.30;;;100.93;;
14015;SDS011;7083;48.854;9.158;2023-04-25T11:49:31;95.27;;;91.43;;
14015;SDS011;7083;48.854;9.158;2023-04-25T11:51:59;88.77;;;85.27;;
14015;SDS011;7083;48.854;9.158;2023-04-25T11:54:26;105.07;;;100.87;;
14015;SDS011;7083;48.854;9.158;2023-04-25T11:56:52;141.00;;;135.33;;
14015;SDS011;7083;48.854;9.158;2023-04-25T11:59:22;210.20;;;201.67;;
14015;SDS011;7083;48.854;9.158;2023-04-25T12:01:50;232.73;;;223.23;;
14015;SDS011;7083;48.854;9.158;2023-04-25T12:04:17;209.13;;;200.60;;
14015;SDS011;7083;48.854;9.158;2023-04-25T12:06:45;257.67;;;247.17;;
14015;SDS011;7083;48.854;9.158;2023-04-25T12:09:15;1423.13;;;752.77;;
14015;SDS011;7083;48.854;9.158;2023-04-25T12:11:44;1999.90;;;999.90;;
14015;SDS011;7083;48.854;9.158;2023-04-25T12:14:11;1999.90;;;999.90;;
14015;SDS011;7083;48.854;9.158;2023-04-25T12:16:42;1999.90;;;999.90;;
14015;SDS011;7083;48.854;9.158;2023-04-25T12:19:09;1999.90;;;999.90;;
14015;SDS011;7083;48.854;9.158;2023-04-25T12:21:39;175.50;;;168.50;;
14015;SDS011;7083;48.854;9.158;2023-04-25T12:24:09;138.77;;;133.20;;
14015;SDS011;7083;48.854;9.158;2023-04-25T12:26:51;134.30;;;128.87;;
14015;SDS011;7083;48.854;9.158;2023-04-25T12:29:19;177.53;;;170.27;;
14015;SDS011;7083;48.854;9.158;2023-04-25T12:31:47;225.97;;;216.73;;
14015;SDS011;7083;48.854;9.158;2023-04-25T12:34:14;264.93;;;254.10;;
14015;SDS011;7083;48.854;9.158;2023-04-25T12:36:41;260.30;;;249.47;;
14015;SDS011;7083;48.854;9.158;2023-04-25T12:39:08;315.03;;;301.07;;
14015;SDS011;7083;48.854;9.158;2023-04-25T12:41:40;250.33;;;239.43;;
14015;SDS011;7083;48.854;9.158;2023-04-25T12:44:08;293.73;;;281.90;;
14015;SDS011;7083;48.854;9.158;2023-04-25T12:46:35;189.07;;;181.30;;
14015;SDS011;7083;48.854;9.158;2023-04-25T12:49:02;189.20;;;181.30;;
14015;SDS011;7083;48.854;9.158;2023-04-25T12:51:29;182.07;;;174.67;;
14015;SDS011;7083;48.854;9.158;2023-04-25T12:53:57;173.57;;;166.63;;
14015;SDS011;7083;48.854;9.158;2023-04-25T12:56:24;220.60;;;211.40;;
14015;SDS011;7083;48.854;9.158;2023-04-25T12:58:51;262.00;;;250.93;;
14015;SDS011;7083;48.854;9.158;2023-04-25T13:01:19;242.37;;;232.53;;
14015;SDS011;7083;48.854;9.158;2023-04-25T13:03:46;226.50;;;217.50;;
14015;SDS011;7083;48.854;9.158;2023-04-25T13:06:13;229.83;;;220.43;;
14015;SDS011;7083;48.854;9.158;2023-04-25T13:08:40;203.83;;;195.63;;
14015;SDS011;7083;48.854;9.158;2023-04-25T13:11:07;203.17;;;194.67;;
14015;SDS011;7083;48.854;9.158;2023-04-25T13:13:35;227.23;;;218.17;;
14015;SDS011;7083;48.854;9.158;2023-04-25T13:16:02;233.00;;;223.50;;
14015;SDS011;7083;48.854;9.158;2023-04-25T13:18:30;193.53;;;185.53;;
14015;SDS011;7083;48.854;9.158;2023-04-25T13:20:57;199.90;;;191.67;;
14015;SDS011;7083;48.854;9.158;2023-04-25T13:23:24;190.27;;;182.47;;
14015;SDS011;7083;48.854;9.158;2023-04-25T13:25:52;269.17;;;258.10;;
14015;SDS011;7083;48.854;9.158;2023-04-25T13:28:20;291.90;;;279.60;;
14015;SDS011;7083;48.854;9.158;2023-04-25T13:30:47;406.33;;;388.70;;
14015;SDS011;7083;48.854;9.158;2023-04-25T13:33:14;386.87;;;370.60;;
14015;SDS011;7083;48.854;9.158;2023-04-25T13:35:42;345.83;;;331.33;;
14015;SDS011;7083;48.854;9.158;2023-04-25T13:38:11;334.77;;;319.80;;
14015;SDS011;7083;48.854;9.158;2023-04-25T13:40:38;313.53;;;300.37;;
14015;SDS011;7083;48.854;9.158;2023-04-25T13:43:05;268.73;;;257.33;;
14015;SDS011;7083;48.854;9.158;2023-04-25T13:45:32;286.50;;;274.63;;
14015;SDS011;7083;48.854;9.158;2023-04-25T13:47:58;364.77;;;349.53;;
14015;SDS011;7083;48.854;9.158;2023-04-25T13:50:25;369.80;;;354.30;;
14015;SDS011;7083;48.854;9.158;2023-04-25T13:52:53;284.70;;;272.97;;
14015;SDS011;7083;48.854;9.158;2023-04-25T13:55:20;259.40;;;248.57;;
14015;SDS011;7083;48.854;9.158;2023-04-25T13:57:46;198.60;;;190.23;;
14015;SDS011;7083;48.854;9.158;2023-04-25T14:00:13;243.87;;;233.87;;
14015;SDS011;7083;48.854;9.158;2023-04-25T14:02:41;214.23;;;205.53;;
14015;SDS011;7083;48.854;9.158;2023-04-25T14:05:08;207.77;;;198.40;;
14015;SDS011;7083;48.854;9.158;2023-04-25T14:07:35;244.40;;;234.27;;
14015;SDS011;7083;48.854;9.158;2023-04-25T14:10:03;253.63;;;243.20;;